Time;durP1;ratioP1;P1;durP2;ratioP2;P2;SDS_P1;SDS_P2;PMS_P1;PMS_P2;Temp;Humidity;BMP_temperature;BMP_pressure;BME280_temperature;BME280_humidity;BME280_pressure;Samples;Min_cycle;Max_cycle;Signal;HPM_P1;HPM_P2
2023/11/17 00:02:17;;;;;;;3.63;2.72;;;;;;;8.22;61.70;100629.75;4960977;28;99444;-73
2023/11/17 00:04:43;;;;;;;5.50;2.88;;;;;;;8.49;61.26;100629.00;4948846;28;98891;-74
2023/11/17 00:07:09;;;;;;;6.85;2.97;;;;;;;8.50;60.47;100633.38;4942465;28;96858;-73
2023/11/17 00:09:36;;;;;;;3.28;2.97;;;;;;;8.39;61.16;100640.72;4951146;28;96916;-73
2023/11/17 00:12:04;;;;;;;5.07;3.10;;;;;;;8.57;60.46;100637.56;4950195;28;99506;-74
2023/11/17 00:14:32;;;;;;;3.15;2.85;;;;;;;8.70;59.65;100643.31;4950504;28;98200;-73
2023/11/17 00:17:00;;;;;;;3.50;2.92;;;;;;;8.90;59.59;100651.50;4951515;28;97641;-74
2023/11/17 00:19:27;;;;;;;3.60;2.90;;;;;;;8.97;58.62;100650.41;4946674;28;96910;-75
2023/11/17 00:21:53;;;;;;;4.97;3.10;;;;;;;8.77;59.74;100647.50;4955649;28;102648;-74
2023/11/17 00:24:20;;;;;;;6.22;3.05;;;;;;;8.80;59.26;100648.25;4944335;28;101303;-74
2023/11/17 00:26:47;;;;;;;2.90;2.50;;;;;;;8.64;59.90;100652.28;4948790;28;97180;-76
2023/11/17 00:29:13;;;;;;;3.63;3.20;;;;;;;8.72;59.46;100665.22;4951300;28;96918;-75
2023/11/17 00:31:40;;;;;;;5.43;2.88;;;;;;;8.79;59.45;100656.25;4949677;28;98910;-76
2023/11/17 00:34:08;;;;;;;4.50;2.72;;;;;;;9.00;58.81;100654.69;4951964;28;98253;-73
2023/11/17 00:36:34;;;;;;;4.60;2.67;;;;;;;8.90;58.78;100648.88;4950590;28;97102;-74
2023/11/17 00:39:02;;;;;;;4.00;2.60;;;;;;;9.02;58.24;100643.22;4942308;28;97006;-74
2023/11/17 00:41:29;;;;;;;4.20;3.17;;;;;;;8.91;58.41;100647.97;4960064;28;100030;-73
2023/11/17 00:43:55;;;;;;;3.00;2.72;;;;;;;8.94;58.70;100650.47;4956281;28;100845;-73
2023/11/17 00:46:22;;;;;;;4.35;2.67;;;;;;;8.94;58.89;100650.47;4954104;28;96928;-74
2023/11/17 00:48:48;;;;;;;2.88;2.30;;;;;;;8.97;58.54;100649.53;4957209;28;96796;-74
2023/11/17 00:51:18;;;;;;;3.25;2.78;;;;;;;9.03;58.42;100650.22;4949248;28;98864;-74
2023/11/17 00:53:55;;;;;;;3.15;2.85;;;;;;;9.17;57.73;100655.94;4950262;28;98844;-75
2023/11/17 00:56:21;;;;;;;2.83;2.53;;;;;;;9.22;57.67;100654.91;4954200;28;96703;-74
2023/11/17 00:58:48;;;;;;;2.80;2.50;;;;;;;8.90;58.23;100658.53;4955374;28;97338;-74
2023/11/17 01:01:17;;;;;;;3.08;2.70;;;;;;;8.80;58.79;100661.44;4954879;28;99188;-73
2023/11/17 01:03:45;;;;;;;3.08;2.50;;;;;;;8.90;58.49;100664.69;4952075;28;98954;-73
2023/11/17 01:06:11;;;;;;;3.30;2.47;;;;;;;8.97;58.10;100663.59;4953402;28;96927;-73
2023/11/17 01:08:39;;;;;;;6.03;2.53;;;;;;;9.12;57.86;100671.00;4957272;28;97058;-74
2023/11/17 01:11:05;;;;;;;3.75;2.58;;;;;;;9.13;57.92;100679.78;4956481;28;98999;-74
2023/11/17 01:13:32;;;;;;;3.22;2.53;;;;;;;9.18;57.80;100680.53;4957658;28;99349;-74
2023/11/17 01:15:59;;;;;;;3.38;2.60;;;;;;;8.89;57.99;100678.75;4954279;28;96742;-75
2023/11/17 01:18:25;;;;;;;2.80;2.40;;;;;;;8.80;58.41;100679.88;4956840;28;96732;-72
2023/11/17 01:20:51;;;;;;;3.83;2.25;;;;;;;8.60;59.31;100678.75;4951267;28;99343;-72
2023/11/17 01:23:18;;;;;;;2.42;2.20;;;;;;;9.01;58.25;100669.59;4947983;28;98918;-72
2023/11/17 01:25:46;;;;;;;2.97;2.47;;;;;;;8.88;58.15;100674.38;4954412;28;96688;-72
2023/11/17 01:28:12;;;;;;;2.45;2.25;;;;;;;8.84;58.55;100672.75;4962771;28;96766;-72
2023/11/17 01:30:38;;;;;;;2.25;2.00;;;;;;;8.69;58.56;100681.09;4950474;28;98230;-72
2023/11/17 01:33:05;;;;;;;3.40;2.22;;;;;;;9.03;58.09;100665.16;4953046;28;99159;-72
2023/11/17 01:35:33;;;;;;;2.28;2.08;;;;;;;8.73;58.68;100685.38;4951232;28;97080;-74
2023/11/17 01:38:01;;;;;;;3.03;2.10;;;;;;;8.86;58.29;100675.38;4949344;28;96845;-72
2023/11/17 01:40:27;;;;;;;2.13;1.90;;;;;;;8.79;58.26;100675.50;4946148;28;99228;-71
2023/11/17 01:43:05;;;;;;;2.15;1.92;;;;;;;8.87;58.24;100674.44;4959859;28;99291;-72
2023/11/17 01:45:31;;;;;;;3.60;2.00;;;;;;;8.85;58.51;100674.50;4952164;28;98485;-72
2023/11/17 01:47:58;;;;;;;7.78;1.80;;;;;;;8.83;58.97;100683.34;4956385;28;96829;-72
2023/11/17 01:50:24;;;;;;;3.10;2.65;;;;;;;8.95;58.49;100691.75;4951916;28;98922;-72
2023/11/17 01:52:51;;;;;;;4.43;2.00;;;;;;;8.69;59.13;100694.28;4970575;28;99133;-72
2023/11/17 01:55:18;;;;;;;2.30;2.05;;;;;;;8.61;59.31;100698.88;4951830;28;96805;-72
2023/11/17 01:57:46;;;;;;;2.35;2.15;;;;;;;8.81;59.07;100699.19;4950059;28;98645;-74
2023/11/17 02:00:14;;;;;;;3.25;2.15;;;;;;;8.78;59.17;100699.28;4958897;28;99205;-71
2023/11/17 02:02:43;;;;;;;1.88;1.70;;;;;;;8.49;59.65;100696.59;4959100;28;100519;-73
2023/11/17 02:05:12;;;;;;;3.10;2.28;;;;;;;8.57;59.89;100702.53;4952127;28;96922;-72
2023/11/17 02:07:47;;;;;;;2.70;2.13;;;;;;;8.46;60.47;100697.56;4957892;28;97651;-73
2023/11/17 02:10:23;;;;;;;2.50;2.30;;;;;;;8.46;60.51;100701.97;4963062;28;100101;-73
2023/11/17 02:12:59;;;;;;;2.20;2.00;;;;;;;8.73;59.76;100695.91;4957613;28;99347;-73
2023/11/17 02:15:34;;;;;;;2.30;2.10;;;;;;;8.75;59.54;100702.88;4958382;28;97158;-74
2023/11/17 02:18:04;;;;;;;2.45;2.20;;;;;;;8.68;59.90;100701.31;4949651;28;97018;-74
2023/11/17 02:20:34;;;;;;;2.55;2.25;;;;;;;8.49;60.33;100707.13;4951465;28;99776;-73
2023/11/17 02:23:10;;;;;;;3.45;2.30;;;;;;;8.61;60.51;100696.25;4956785;28;99288;-72
2023/11/17 02:25:46;;;;;;;2.37;2.17;;;;;;;8.53;60.29;100703.53;4951679;28;96936;-72
2023/11/17 02:28:20;;;;;;;2.58;2.00;;;;;;;8.69;60.33;100707.44;4961854;28;97540;-72
2023/11/17 02:30:55;;;;;;;2.20;2.00;;;;;;;8.88;59.33;100703.38;4959837;28;99040;-73
2023/11/17 02:33:24;;;;;;;2.78;1.88;;;;;;;8.83;59.74;100704.41;4956310;28;101339;-73
2023/11/17 02:35:55;;;;;;;2.60;2.20;;;;;;;8.77;59.66;100710.72;4951147;28;97244;-74
2023/11/17 02:38:21;;;;;;;2.00;1.90;;;;;;;8.44;60.60;100706.41;4955158;28;97198;-74
2023/11/17 02:40:48;;;;;;;3.22;2.38;;;;;;;8.75;59.89;100704.63;4958670;28;98175;-74
2023/11/17 02:43:14;;;;;;;4.47;2.25;;;;;;;8.62;60.44;100706.75;4945602;28;98898;-74
2023/11/17 02:45:40;;;;;;;2.30;2.10;;;;;;;8.82;60.09;100716.72;4955972;28;96694;-75
2023/11/17 02:48:10;;;;;;;3.58;2.22;;;;;;;8.68;60.11;100716.25;4958188;28;96950;-75
2023/11/17 02:50:51;;;;;;;3.22;2.42;;;;;;;8.72;60.20;100705.59;4953568;28;98915;-75
2023/11/17 02:53:24;;;;;;;5.88;2.25;;;;;;;8.59;60.82;100716.53;4952365;28;99228;-75
2023/11/17 02:55:52;;;;;;;2.95;1.88;;;;;;;8.09;61.83;100713.44;4943058;28;96981;-75
2023/11/17 02:58:19;;;;;;;3.55;2.45;;;;;;;8.42;61.92;100714.34;4950022;28;98616;-75
2023/11/17 03:00:51;;;;;;;2.25;2.05;;;;;;;8.35;62.15;100718.03;4956618;28;98606;-76
2023/11/17 03:03:22;;;;;;;2.15;1.98;;;;;;;8.52;61.75;100720.22;4952117;28;99531;-76
2023/11/17 03:05:49;;;;;;;2.58;2.20;;;;;;;8.95;59.90;100723.38;4952950;28;96743;-76
2023/11/17 03:08:19;;;;;;;2.30;2.10;;;;;;;8.82;60.23;100718.50;4950760;28;97257;-76
2023/11/17 03:10:46;;;;;;;4.20;2.25;;;;;;;8.56;61.23;100721.88;4961380;28;100684;-76
2023/11/17 03:13:15;;;;;;;3.42;2.63;;;;;;;8.69;60.35;100723.25;4949326;28;98857;-76
2023/11/17 03:15:43;;;;;;;3.78;3.00;;;;;;;8.72;60.63;100728.44;4945279;28;96929;-76
2023/11/17 03:18:10;;;;;;;3.90;2.80;;;;;;;8.78;60.31;100731.78;4949069;28;97471;-75
2023/11/17 03:20:38;;;;;;;2.95;2.75;;;;;;;9.06;59.95;100734.44;4946945;28;99045;-73
2023/11/17 03:23:04;;;;;;;4.05;2.97;;;;;;;8.81;60.38;100738.72;4949618;28;101547;-74
2023/11/17 03:25:30;;;;;;;3.63;3.13;;;;;;;8.76;61.50;100737.97;4941643;28;96767;-73
2023/11/17 03:27:57;;;;;;;4.65;3.28;;;;;;;8.29;62.85;100737.47;4949617;28;96954;-74
2023/11/17 03:30:23;;;;;;;5.18;3.20;;;;;;;8.43;63.08;100742.41;4946886;28;98887;-76
2023/11/17 03:32:52;;;;;;;4.30;3.03;;;;;;;8.01;64.75;100749.59;4951024;28;98763;-74
2023/11/17 03:35:20;;;;;;;4.03;3.63;;;;;;;8.07;65.84;100751.25;4941813;28;97113;-74
2023/11/17 03:37:50;;;;;;;3.50;3.10;;;;;;;8.24;64.53;100752.53;4951773;28;97261;-74
2023/11/17 03:40:17;;;;;;;4.22;3.83;;;;;;;8.19;64.92;100751.78;4942095;28;98550;-73
2023/11/17 03:42:44;;;;;;;4.07;3.67;;;;;;;8.12;65.65;100746.72;4950218;28;99326;-73
2023/11/17 03:45:15;;;;;;;7.30;3.67;;;;;;;8.18;65.17;100747.41;4960673;28;96764;-72
2023/11/17 03:47:41;;;;;;;3.75;3.45;;;;;;;8.40;64.37;100748.59;4954374;28;97612;-72
2023/11/17 03:50:13;;;;;;;4.20;3.65;;;;;;;8.54;64.40;100755.28;4945995;28;98976;-72
2023/11/17 03:52:39;;;;;;;3.70;3.40;;;;;;;8.44;64.11;100748.53;4947519;28;99290;-73
2023/11/17 03:55:08;;;;;;;4.15;3.75;;;;;;;8.47;64.32;100753.75;4947974;28;96854;-75
2023/11/17 03:57:36;;;;;;;4.68;3.83;;;;;;;8.60;63.72;100763.03;4946028;28;97136;-75
2023/11/17 04:00:05;;;;;;;5.15;3.78;;;;;;;8.61;63.88;100762.09;4946204;28;100774;-74
2023/11/17 04:02:32;;;;;;;4.03;3.63;;;;;;;8.65;63.27;100759.38;4946231;28;101455;-73
2023/11/17 04:04:58;;;;;;;5.05;3.85;;;;;;;8.37;64.03;100764.50;4948445;28;97059;-73
2023/11/17 04:07:25;;;;;;;5.63;4.03;;;;;;;8.31;64.21;100769.94;4949503;28;96847;-73
2023/11/17 04:09:51;;;;;;;4.82;4.07;;;;;;;8.40;64.35;100774.09;4945917;28;99308;-72
2023/11/17 04:12:19;;;;;;;4.85;4.45;;;;;;;8.52;63.83;100776.41;4948823;28;99144;-72
2023/11/17 04:14:46;;;;;;;4.25;3.80;;;;;;;8.34;64.33;100772.47;4946555;28;96861;-74
2023/11/17 04:17:12;;;;;;;4.82;4.03;;;;;;;8.28;64.72;100775.22;4948958;28;96984;-74
2023/11/17 04:19:40;;;;;;;5.18;3.97;;;;;;;8.39;64.55;100775.88;4946895;28;100032;-75
2023/11/17 04:22:07;;;;;;;3.55;3.25;;;;;;;8.04;65.11;100775.84;4942136;28;98590;-75
2023/11/17 04:24:34;;;;;;;6.80;3.70;;;;;;;8.12;65.54;100776.53;4948533;28;98660;-75
2023/11/17 04:27:00;;;;;;;3.72;3.42;;;;;;;8.31;64.89;100779.59;4946104;28;98918;-74
2023/11/17 04:29:27;;;;;;;4.30;3.92;;;;;;;8.12;65.85;100775.66;4946689;28;99379;-75
2023/11/17 04:31:54;;;;;;;7.10;3.45;;;;;;;8.19;65.86;100779.88;4945300;28;100512;-75
2023/11/17 04:34:21;;;;;;;3.97;3.58;;;;;;;8.05;65.47;100780.22;4946224;28;98789;-74
2023/11/17 04:36:47;;;;;;;3.97;3.58;;;;;;;8.06;65.73;100784.59;4945119;28;97954;-74
2023/11/17 04:39:17;;;;;;;5.07;3.53;;;;;;;8.07;65.71;100775.78;4946726;28;99020;-75
2023/11/17 04:41:44;;;;;;;8.13;3.85;;;;;;;8.13;65.94;100780.91;4954148;28;99044;-75
2023/11/17 04:44:10;;;;;;;3.58;3.28;;;;;;;8.14;65.45;100782.59;4952190;28;97400;-75
2023/11/17 04:46:38;;;;;;;3.83;3.42;;;;;;;8.47;65.04;100790.59;4948720;28;98904;-75
2023/11/17 04:49:05;;;;;;;3.67;3.38;;;;;;;8.77;63.26;100790.63;4947421;28;100260;-75
2023/11/17 04:51:31;;;;;;;3.67;3.28;;;;;;;8.67;64.07;100798.81;4944096;28;101391;-75
2023/11/17 04:53:58;;;;;;;5.72;3.75;;;;;;;8.50;64.28;100795.78;4944722;28;96770;-75
2023/11/17 04:56:24;;;;;;;4.40;4.00;;;;;;;8.37;64.28;100785.56;4949077;28;96861;-75
2023/11/17 04:58:51;;;;;;;6.05;4.60;;;;;;;7.86;67.65;100799.97;4945947;28;98983;-73
2023/11/17 05:01:17;;;;;;;4.00;3.47;;;;;;;7.98;66.64;100794.41;4944737;28;99186;-73
2023/11/17 05:03:45;;;;;;;4.05;3.60;;;;;;;8.15;66.61;100802.75;4943502;28;97300;-73
2023/11/17 05:06:12;;;;;;;4.82;3.80;;;;;;;8.01;67.17;100799.59;4948436;28;96973;-74
2023/11/17 05:08:39;;;;;;;5.15;3.22;;;;;;;8.15;67.31;100808.03;4944953;28;99500;-73
2023/11/17 05:11:06;;;;;;;4.63;3.47;;;;;;;8.10;67.52;100815.16;4951834;28;98073;-73
2023/11/17 05:13:32;;;;;;;4.45;3.67;;;;;;;7.88;69.02;100816.56;4947547;28;96739;-73
2023/11/17 05:16:00;;;;;;;4.47;3.08;;;;;;;7.82;69.47;100816.72;4951686;28;96797;-73
2023/11/17 05:18:27;;;;;;;7.97;3.40;;;;;;;8.01;69.67;100831.16;4947245;28;102475;-73
2023/11/17 05:20:54;;;;;;;5.28;3.50;;;;;;;7.87;70.70;100825.41;4947779;28;98865;-73
2023/11/17 05:23:21;;;;;;;3.63;3.28;;;;;;;8.04;70.51;100831.13;4949475;28;98853;-74
2023/11/17 05:25:47;;;;;;;4.05;3.30;;;;;;;8.07;70.33;100828.44;4949979;28;96984;-73
2023/11/17 05:28:14;;;;;;;5.05;3.55;;;;;;;8.12;70.12;100831.81;4943804;28;98668;-73
2023/11/17 05:30:40;;;;;;;5.47;3.65;;;;;;;8.15;69.55;100836.97;4947476;28;99092;-75
2023/11/17 05:33:06;;;;;;;7.25;3.45;;;;;;;8.34;69.12;100837.41;4948473;28;96860;-74
2023/11/17 05:35:33;;;;;;;4.82;3.28;;;;;;;8.32;68.37;100829.59;4947862;28;96894;-73
2023/11/17 05:38:01;;;;;;;5.32;3.50;;;;;;;8.21;69.08;100839.47;4949769;28;99413;-75
2023/11/17 05:40:27;;;;;;;4.65;3.13;;;;;;;7.84;70.60;100834.22;4949654;28;99831;-74
2023/11/17 05:42:54;;;;;;;4.60;3.38;;;;;;;8.06;69.88;100831.09;4957751;28;96851;-75
2023/11/17 05:45:20;;;;;;;6.25;3.08;;;;;;;8.40;67.99;100827.59;4960003;28;98849;-74
2023/11/17 05:47:46;;;;;;;6.72;3.40;;;;;;;8.24;68.52;100836.75;4959769;28;99324;-74
2023/11/17 05:50:13;;;;;;;4.35;3.20;;;;;;;8.40;67.90;100834.66;4951445;28;99491;-75
2023/11/17 05:52:40;;;;;;;3.10;2.80;;;;;;;8.42;67.13;100846.00;4950438;28;96843;-74
2023/11/17 05:55:10;;;;;;;4.05;2.80;;;;;;;8.45;67.18;100840.66;4950128;28;97354;-74
2023/11/17 05:57:42;;;;;;;3.80;2.80;;;;;;;8.50;66.88;100843.19;4948467;28;99082;-74
2023/11/17 06:00:12;;;;;;;3.65;3.08;;;;;;;7.99;68.71;100849.66;4951028;28;99259;-75
2023/11/17 06:02:39;;;;;;;7.50;2.33;;;;;;;7.81;69.57;100849.22;4945213;28;96873;-73
2023/11/17 06:05:08;;;;;;;4.60;3.08;;;;;;;7.92;69.96;100853.31;4946947;28;96840;-74
2023/11/17 06:07:37;;;;;;;3.40;2.83;;;;;;;8.31;68.06;100864.72;4950823;28;99227;-73
2023/11/17 06:10:04;;;;;;;7.82;3.10;;;;;;;8.51;67.76;100861.59;4948269;28;100333;-74
2023/11/17 06:12:33;;;;;;;5.30;3.30;;;;;;;8.56;66.79;100859.69;4949505;28;96715;-73
2023/11/17 06:14:59;;;;;;;3.97;3.00;;;;;;;8.51;67.58;100856.31;4946845;28;98918;-75
2023/11/17 06:17:26;;;;;;;4.60;3.00;;;;;;;8.87;66.63;100865.03;4931394;28;100894;-73
2023/11/17 06:19:52;;;;;;;8.48;3.50;;;;;;;8.80;66.50;100860.81;4934162;28;98776;-74
2023/11/17 06:22:19;;;;;;;4.05;3.00;;;;;;;8.68;66.54;100867.28;4933274;28;98962;-74
2023/11/17 06:24:45;;;;;;;3.42;3.10;;;;;;;8.31;68.23;100869.09;4936187;28;100243;-74
2023/11/17 06:27:13;;;;;;;6.30;3.20;;;;;;;8.40;68.08;100868.91;4926727;28;100018;-75
2023/11/17 06:29:43;;;;;;;4.72;3.00;;;;;;;8.10;69.09;100870.44;4934812;28;101012;-74
2023/11/17 06:32:10;;;;;;;7.07;3.45;;;;;;;8.29;68.46;100869.09;4935588;28;98751;-74
2023/11/17 06:34:38;;;;;;;5.68;3.22;;;;;;;8.31;68.39;100867.34;4929576;28;97984;-73
2023/11/17 06:37:05;;;;;;;7.05;3.20;;;;;;;8.16;69.47;100875.56;4932050;28;100866;-73
2023/11/17 06:39:31;;;;;;;7.55;4.07;;;;;;;7.88;70.28;100877.94;4931413;28;100850;-73
2023/11/17 06:41:58;;;;;;;7.30;3.50;;;;;;;7.89;70.97;100881.44;4933291;28;96902;-73
2023/11/17 06:44:25;;;;;;;4.60;3.22;;;;;;;7.79;70.93;100874.69;4933692;28;98233;-75
2023/11/17 06:46:53;;;;;;;6.85;3.17;;;;;;;7.91;71.00;100887.56;4951368;28;99054;-74
2023/11/17 06:49:22;;;;;;;5.63;3.20;;;;;;;8.15;69.81;100886.13;4949310;28;99116;-74
2023/11/17 06:51:50;;;;;;;5.57;3.70;;;;;;;8.36;68.46;100888.28;4945097;28;97918;-73
2023/11/17 06:54:18;;;;;;;5.88;2.70;;;;;;;8.16;68.82;100888.72;4950211;28;96861;-74
2023/11/17 06:56:46;;;;;;;7.90;3.63;;;;;;;8.34;68.62;100892.72;4948927;28;99695;-75
2023/11/17 06:59:14;;;;;;;7.05;3.60;;;;;;;8.24;68.51;100894.69;4945755;28;99310;-74
2023/11/17 07:01:43;;;;;;;7.93;4.03;;;;;;;8.37;68.88;100893.53;4946788;28;96785;-74
2023/11/17 07:04:12;;;;;;;6.40;3.70;;;;;;;8.51;67.52;100898.47;4943254;28;97919;-74
2023/11/17 07:06:39;;;;;;;5.95;3.75;;;;;;;8.54;67.41;100905.41;4948910;28;99510;-74
2023/11/17 07:09:15;;;;;;;5.70;3.85;;;;;;;8.67;66.54;100896.28;4947434;28;97653;-74
2023/11/17 07:11:42;;;;;;;6.88;3.08;;;;;;;8.58;66.65;100901.81;4942750;28;97703;-74
2023/11/17 07:14:08;;;;;;;5.95;3.45;;;;;;;8.44;67.63;100912.66;4944523;28;97498;-74
2023/11/17 07:16:36;;;;;;;6.50;3.58;;;;;;;8.38;67.43;100918.09;4949786;28;98591;-76
2023/11/17 07:19:03;;;;;;;4.30;3.25;;;;;;;8.10;69.46;100925.72;4947874;28;98236;-75
2023/11/17 07:21:31;;;;;;;6.25;3.40;;;;;;;8.51;67.62;100923.91;4947102;28;96950;-75
2023/11/17 07:23:58;;;;;;;6.65;4.30;;;;;;;8.27;68.09;100920.91;4943727;28;98502;-77
2023/11/17 07:26:25;;;;;;;5.25;3.25;;;;;;;8.11;68.52;100923.94;4955145;28;99177;-76
2023/11/17 07:28:51;;;;;;;4.00;3.60;;;;;;;8.44;67.83;100927.59;4947238;28;100704;-76
2023/11/17 07:31:18;;;;;;;3.95;3.55;;;;;;;8.09;68.63;100937.13;4941406;28;97037;-75
2023/11/17 07:33:45;;;;;;;6.78;3.13;;;;;;;8.11;68.11;100934.47;4940046;28;98689;-76
2023/11/17 07:36:15;;;;;;;4.05;3.65;;;;;;;8.11;68.69;100937.97;4941622;28;99275;-74
2023/11/17 07:38:51;;;;;;;6.90;3.50;;;;;;;8.32;68.29;100932.28;4949344;28;100304;-73
2023/11/17 07:41:18;;;;;;;3.93;3.20;;;;;;;8.47;66.94;100928.38;4945268;28;96868;-74
2023/11/17 07:43:44;;;;;;;6.55;3.33;;;;;;;8.32;67.92;100928.75;4949099;28;96918;-74
2023/11/17 07:46:10;;;;;;;3.33;3.03;;;;;;;8.30;67.51;100934.06;4948027;28;97602;-73
2023/11/17 07:48:37;;;;;;;4.72;3.88;;;;;;;8.35;67.68;100940.06;4957087;28;99288;-73
2023/11/17 07:51:04;;;;;;;3.63;3.33;;;;;;;8.28;67.26;100943.72;4951768;28;96748;-73
2023/11/17 07:53:30;;;;;;;10.35;3.92;;;;;;;8.32;67.47;100950.69;4957855;28;96869;-72
2023/11/17 07:55:58;;;;;;;3.80;3.45;;;;;;;8.41;67.02;100944.31;4950185;28;99435;-73
2023/11/17 07:58:26;;;;;;;4.93;3.45;;;;;;;8.28;67.60;100956.88;4951349;28;102069;-72
2023/11/17 08:00:54;;;;;;;5.18;3.30;;;;;;;8.32;68.05;100957.72;4946118;28;98608;-71
2023/11/17 08:03:21;;;;;;;5.15;3.60;;;;;;;8.12;68.55;100957.28;4956338;28;96921;-73
2023/11/17 08:05:48;;;;;;;4.47;3.67;;;;;;;8.44;67.88;100965.34;4944646;28;99545;-70
2023/11/17 08:08:16;;;;;;;4.88;4.38;;;;;;;8.50;66.98;100974.88;4948795;28;98836;-74
2023/11/17 08:10:43;;;;;;;6.50;3.75;;;;;;;8.48;67.32;100976.66;4945263;28;96794;-70
2023/11/17 08:13:11;;;;;;;4.78;3.53;;;;;;;8.67;66.31;100970.03;4949524;28;96903;-69
2023/11/17 08:15:38;;;;;;;8.07;3.80;;;;;;;8.81;65.59;100973.22;4943721;28;98894;-76
2023/11/17 08:18:04;;;;;;;5.60;3.47;;;;;;;9.01;65.04;100978.84;4943694;28;98880;-74
2023/11/17 08:20:32;;;;;;;3.95;3.55;;;;;;;9.06;64.55;100979.59;4945749;28;97708;-74
2023/11/17 08:22:58;;;;;;;3.95;3.55;;;;;;;9.09;64.31;100986.56;4947138;28;96926;-74
2023/11/17 08:25:26;;;;;;;4.75;4.15;;;;;;;9.22;63.49;100979.22;4945640;28;99210;-74
2023/11/17 08:27:53;;;;;;;4.90;3.92;;;;;;;9.28;63.39;100992.22;4946187;28;98778;-74
2023/11/17 08:30:20;;;;;;;5.72;4.00;;;;;;;8.87;65.15;100983.59;4946587;28;96749;-75
2023/11/17 08:32:47;;;;;;;5.18;3.80;;;;;;;9.05;64.61;100991.06;4944990;28;97706;-76
2023/11/17 08:35:14;;;;;;;4.95;3.88;;;;;;;8.95;64.85;100988.69;4946114;28;99053;-75
2023/11/17 08:37:40;;;;;;;4.20;3.80;;;;;;;9.20;64.69;100995.94;4945948;28;98691;-76
2023/11/17 08:40:09;;;;;;;10.02;3.70;;;;;;;9.03;64.83;101002.56;4938566;28;100034;-76
2023/11/17 08:42:35;;;;;;;5.13;3.80;;;;;;;8.88;65.55;100998.50;4943001;28;96740;-76
2023/11/17 08:45:07;;;;;;;8.57;3.90;;;;;;;9.03;65.08;101006.06;4945948;28;98017;-76
2023/11/17 08:47:36;;;;;;;5.00;3.80;;;;;;;9.26;64.53;101001.94;4946006;28;98299;-76
2023/11/17 08:50:03;;;;;;;7.90;4.25;;;;;;;9.11;65.06;101012.00;4943337;28;97000;-76
2023/11/17 08:52:34;;;;;;;9.77;4.20;;;;;;;9.15;65.01;101021.56;4947777;28;97333;-76
2023/11/17 08:55:01;;;;;;;4.20;3.30;;;;;;;9.46;64.10;101018.13;4942966;28;98756;-76
2023/11/17 08:57:29;;;;;;;5.88;3.80;;;;;;;9.23;64.67;101021.38;4945950;28;99729;-77
2023/11/17 08:59:55;;;;;;;5.55;3.60;;;;;;;9.41;64.11;101030.56;4946123;28;96862;-76
2023/11/17 09:02:21;;;;;;;5.07;3.30;;;;;;;9.34;64.35;101029.84;4946738;28;97257;-76
2023/11/17 09:04:51;;;;;;;4.72;3.65;;;;;;;9.41;64.13;101041.13;4946157;28;99075;-74
2023/11/17 09:07:17;;;;;;;8.75;3.85;;;;;;;9.76;63.24;101034.91;4939728;28;99887;-76
2023/11/17 09:09:43;;;;;;;9.27;4.18;;;;;;;9.83;63.02;101041.75;4946734;28;96813;-77
2023/11/17 09:12:09;;;;;;;6.47;3.78;;;;;;;9.79;63.14;101046.22;4946935;28;96761;-76
2023/11/17 09:14:36;;;;;;;4.60;3.47;;;;;;;9.69;63.45;101057.97;4945664;28;99295;-76
2023/11/17 09:17:06;;;;;;;4.65;4.18;;;;;;;9.55;63.44;101054.81;4941067;28;99322;-75
2023/11/17 09:19:33;;;;;;;4.40;3.63;;;;;;;9.76;63.52;101058.66;4942688;28;96790;-76
2023/11/17 09:22:01;;;;;;;9.40;3.58;;;;;;;9.74;63.22;101050.78;4945085;28;97189;-76
2023/11/17 09:24:27;;;;;;;4.05;3.63;;;;;;;9.69;63.20;101063.25;4944415;28;100619;-76
2023/11/17 09:26:54;;;;;;;12.10;3.95;;;;;;;9.54;63.80;101063.63;4942316;28;99414;-77
2023/11/17 09:29:20;;;;;;;5.28;3.75;;;;;;;9.73;63.74;101072.78;4945734;28;97132;-77
2023/11/17 09:31:47;;;;;;;5.03;3.75;;;;;;;9.71;63.29;101069.34;4945273;28;97959;-77
2023/11/17 09:34:14;;;;;;;5.05;4.00;;;;;;;9.62;63.87;101074.00;4943633;28;98710;-76
2023/11/17 09:36:40;;;;;;;12.25;3.70;;;;;;;9.77;62.79;101061.25;4942991;28;99251;-76
2023/11/17 09:39:10;;;;;;;5.55;4.03;;;;;;;9.87;62.58;101068.00;4946014;28;96879;-76
2023/11/17 09:41:37;;;;;;;13.20;5.50;;;;;;;9.84;62.71;101067.25;4945194;28;97664;-78
2023/11/17 09:44:05;;;;;;;4.85;4.20;;;;;;;9.38;63.98;101067.59;4945430;28;98859;-78
2023/11/17 09:46:35;;;;;;;5.35;4.43;;;;;;;9.58;63.57;101070.59;4945963;28;99022;-77
2023/11/17 09:49:04;;;;;;;6.18;4.00;;;;;;;9.91;62.49;101068.81;4942428;28;98156;-76
2023/11/17 09:51:32;;;;;;;5.00;3.83;;;;;;;9.23;64.81;101062.69;4940520;28;96922;-76
2023/11/17 09:54:01;;;;;;;4.60;3.72;;;;;;;9.28;64.41;101072.22;4943421;28;98917;-77
2023/11/17 09:56:29;;;;;;;7.85;4.50;;;;;;;9.66;63.14;101071.22;4946096;28;97574;-77
2023/11/17 09:58:58;;;;;;;5.82;4.40;;;;;;;9.60;63.54;101074.88;4939239;28;97288;-77
2023/11/17 10:01:29;;;;;;;4.80;4.20;;;;;;;9.70;62.82;101078.16;4946378;28;96940;-76
2023/11/17 10:03:58;;;;;;;5.13;4.40;;;;;;;9.55;63.55;101076.78;4946266;28;99156;-77
2023/11/17 10:06:27;;;;;;;8.77;5.22;;;;;;;9.82;62.69;101083.13;4946526;28;99668;-77
2023/11/17 10:08:55;;;;;;;5.32;4.70;;;;;;;9.97;62.06;101085.34;4949362;28;96882;-77
2023/11/17 10:11:25;;;;;;;7.95;4.70;;;;;;;9.76;62.49;101083.28;4947812;28;96951;-76
2023/11/17 10:13:56;;;;;;;5.13;4.15;;;;;;;9.85;62.65;101088.28;4948826;28;98911;-77
2023/11/17 10:16:24;;;;;;;6.90;4.40;;;;;;;9.78;62.92;101084.06;4949524;28;101191;-76
2023/11/17 10:18:51;;;;;;;10.90;4.50;;;;;;;9.24;64.45;101085.53;4947030;28;97729;-78
2023/11/17 10:21:19;;;;;;;6.50;4.05;;;;;;;9.58;63.89;101095.16;4946215;28;98320;-76
2023/11/17 10:23:50;;;;;;;6.82;4.53;;;;;;;9.83;62.44;101094.53;4948720;28;99087;-77
2023/11/17 10:26:18;;;;;;;6.63;4.57;;;;;;;10.04;61.69;101093.97;4949343;28;98887;-76
2023/11/17 10:28:44;;;;;;;4.93;4.32;;;;;;;10.26;61.03;101096.88;4942295;28;97409;-76
2023/11/17 10:31:13;;;;;;;5.60;4.32;;;;;;;9.97;61.17;101092.41;4947437;28;97126;-77
2023/11/17 10:33:42;;;;;;;5.43;4.57;;;;;;;9.95;61.72;101086.28;4949160;28;99304;-76
2023/11/17 10:36:11;;;;;;;7.88;4.10;;;;;;;10.06;61.04;101099.16;4946098;28;98839;-77
2023/11/17 10:38:39;;;;;;;4.78;4.22;;;;;;;9.73;62.52;101088.63;4944021;28;98772;-77
2023/11/17 10:41:14;;;;;;;6.30;3.40;;;;;;;9.60;62.82;101084.56;4947237;28;98580;-77
2023/11/17 10:43:49;;;;;;;5.22;3.90;;;;;;;10.05;61.86;101089.50;4946970;28;102137;-76
2023/11/17 10:46:20;;;;;;;4.95;3.63;;;;;;;10.43;60.41;101088.47;4944468;28;99572;-76
2023/11/17 10:48:46;;;;;;;4.18;3.47;;;;;;;10.27;60.29;101088.03;4941177;28;97437;-77
2023/11/17 10:51:16;;;;;;;5.70;3.67;;;;;;;10.16;61.09;101095.38;4947567;28;98023;-76
2023/11/17 10:53:43;;;;;;;4.97;3.38;;;;;;;10.19;60.63;101088.25;4948106;28;98990;-77
2023/11/17 10:56:23;;;;;;;2.85;2.33;;;;;;;9.60;61.93;101090.72;4946650;28;98917;-77
2023/11/17 10:58:52;;;;;;;3.58;2.83;;;;;;;9.71;62.25;101094.88;4945064;28;98061;-78
2023/11/17 11:01:21;;;;;;;3.53;2.88;;;;;;;9.74;62.47;101098.28;4946267;28;96833;-77
2023/11/17 11:03:47;;;;;;;4.03;3.20;;;;;;;9.69;62.48;101096.66;4941562;28;100371;-77
2023/11/17 11:06:14;;;;;;;4.15;3.13;;;;;;;10.01;62.14;101091.38;4945334;28;97717;-78
2023/11/17 11:08:51;;;;;;;3.83;2.97;;;;;;;10.13;61.47;101100.75;4947728;28;97458;-79
2023/11/17 11:11:21;;;;;;;6.93;3.20;;;;;;;10.05;61.08;101092.16;4943765;28;96778;-79
2023/11/17 11:13:53;;;;;;;3.20;2.80;;;;;;;10.15;61.40;101091.88;4945583;28;99475;-78
2023/11/17 11:16:23;;;;;;;6.75;2.88;;;;;;;10.06;60.75;101093.88;4945836;28;98878;-80
2023/11/17 11:18:53;;;;;;;6.85;2.70;;;;;;;10.53;59.92;101101.34;4941521;28;98069;-77
2023/11/17 11:21:20;;;;;;;3.47;2.97;;;;;;;10.57;59.32;101108.28;4946145;28;96844;-76
2023/11/17 11:23:48;;;;;;;3.70;2.78;;;;;;;10.68;58.37;101115.91;4942993;28;100093;-76
2023/11/17 11:26:16;;;;;;;7.13;3.25;;;;;;;10.72;58.74;101118.41;4944705;28;99139;-77
2023/11/17 11:28:42;;;;;;;3.20;2.42;;;;;;;10.06;61.35;101109.72;4939188;28;97620;-75
2023/11/17 11:31:11;;;;;;;4.60;2.90;;;;;;;9.96;62.30;101120.56;4942623;28;97561;-77
2023/11/17 11:33:39;;;;;;;7.18;2.60;;;;;;;10.09;62.38;101117.59;4944933;28;101781;-76
2023/11/17 11:36:06;;;;;;;4.28;2.85;;;;;;;10.10;61.93;101125.47;4945007;28;99395;-76